HomeShort term forecast

Short term forecast

Graphical weather forecast for the next 48 hours for Montreal:

Short term forecast

This weather forecast is automatically refreshed every 3 hours.

Hourly Experimental Forecast for the next 48 hours ®

Overall summary: Partly cloudy throughout the day.

 Date & Hour   Temp   Feel   Baro   Hum   Speed & Bearing   Wind Gust   Precip.%   Precip.   Visibility   Cloud cover   Conditions 
 06/05/2021 - 06:00  4.9°C  1.4°C  1011.3 hPa  78%  17.1 km/h   33.1 km/h  0%  --  16.1km  40%  Partly Cloudy 
 06/05/2021 - 07:00  5.3°C  1.5°C  1012.2 hPa  75%  19.0 km/h   41.7 km/h  0%  --  16.1km  30%  Clear 
 06/05/2021 - 08:00  5.8°C  2.1°C  1012.7 hPa  71%  20.0 km/h   36.4 km/h  3%  0.05 mm/h  16.1km  24%  Clear 
 06/05/2021 - 09:00  6.8°C  3.2°C  1013.3 hPa  65%  21.2 km/h   32.9 km/h  3%  0.04 mm/h  16.1km  13%  Clear 
 06/05/2021 - 10:00  7.8°C  4.3°C  1013.8 hPa  58%  22.2 km/h   31.8 km/h  0%  --  16.1km  6%  Clear 
 06/05/2021 - 11:00  8.8°C  5.5°C  1014.0 hPa  51%  23.1 km/h   31.6 km/h  0%  --  16.1km  6%  Clear 
 06/05/2021 - 12:00  9.5°C  6.4°C  1013.9 hPa  45%  23.6 km/h   31.5 km/h  0%  --  16.1km  12%  Clear 
 06/05/2021 - 13:00  10.1°C  10.1°C  1013.7 hPa  40%  23.5 km/h   31.1 km/h  0%  --  16.1km  27%  Clear 
 06/05/2021 - 14:00  10.8°C  10.8°C  1013.2 hPa  37%  23.1 km/h   30.0 km/h  0%  --  16.1km  15%  Clear 
 06/05/2021 - 15:00  11.5°C  11.5°C  1013.1 hPa  35%  22.5 km/h   29.7 km/h  1%  0.04 mm/h  16.1km  31%  Partly Cloudy 
 06/05/2021 - 16:00  12.0°C  12.0°C  1013.2 hPa  33%  21.9 km/h   29.7 km/h  0%  --  16.1km  37%  Partly Cloudy 
 06/05/2021 - 17:00  12.3°C  12.3°C  1012.9 hPa  33%  20.2 km/h   28.7 km/h  1%  0.02 mm/h  16.1km  58%  Partly Cloudy 
 06/05/2021 - 18:00  12.3°C  12.3°C  1013.4 hPa  36%  17.3 km/h   27.8 km/h  0%  --  16.1km  65%  Mostly Cloudy 
 06/05/2021 - 19:00  12.0°C  12.0°C  1013.5 hPa  45%  12.8 km/h   21.7 km/h  0%  --  16.1km  58%  Partly Cloudy 
 06/05/2021 - 20:00  10.9°C  10.9°C  1013.9 hPa  50%  10.1 km/h   19.1 km/h  0%  --  16.1km  54%  Partly Cloudy 
 06/05/2021 - 21:00  9.7°C  8.5°C  1014.3 hPa  54%  8.8 km/h   17.4 km/h  0%  --  16.1km  42%  Partly Cloudy 
 06/05/2021 - 22:00  8.7°C  7.5°C  1014.4 hPa  56%  8.2 km/h   16.8 km/h  0%  --  16.1km  30%  Clear 
 06/05/2021 - 23:00  7.8°C  6.6°C  1014.6 hPa  59%  7.5 km/h   13.4 km/h  0%  --  16.1km  24%  Clear 
 07/05/2021 - 00:00  7.2°C  6.2°C  1014.6 hPa  61%  6.2 km/h   12.0 km/h  0%  --  16.1km  20%  Clear 
 07/05/2021 - 01:00  6.5°C  5.5°C  1014.9 hPa  64%  5.8 km/h   11.1 km/h  0%  --  16.1km  18%  Clear 
 07/05/2021 - 02:00  5.8°C  5.8°C  1014.9 hPa  67%  4.2 km/h   6.6 km/h  0%  --  16.1km  18%  Clear 
 07/05/2021 - 03:00  4.9°C  4.9°C  1014.9 hPa  71%  3.4 km/h   4.8 km/h  0%  --  16.1km  26%  Clear 
 07/05/2021 - 04:00  4.0°C  4.0°C  1014.8 hPa  74%  3.1 km/h   3.8 km/h  0%  --  16.1km  28%  Clear 
 07/05/2021 - 05:00  3.5°C  3.5°C  1014.9 hPa  77%  3.5 km/h   5.7 km/h  0%  --  16.1km  29%  Clear 
 07/05/2021 - 06:00  3.9°C  3.9°C  1015.0 hPa  76%  3.9 km/h   7.7 km/h  0%  --  16.1km  33%  Partly Cloudy 
 07/05/2021 - 07:00  5.0°C  5.0°C  1015.4 hPa  73%  4.6 km/h   8.7 km/h  0%  --  16.1km  31%  Clear 
 07/05/2021 - 08:00  6.4°C  5.3°C  1015.6 hPa  68%  6.2 km/h   11.5 km/h  0%  --  16.1km  28%  Clear 
 07/05/2021 - 09:00  8.2°C  7.2°C  1015.8 hPa  63%  6.8 km/h   11.2 km/h  0%  --  16.1km  30%  Clear 
 07/05/2021 - 10:00  10.0°C  9.1°C  1015.4 hPa  55%  7.6 km/h   10.5 km/h  0%  --  16.1km  39%  Partly Cloudy 
 07/05/2021 - 11:00  11.2°C  11.2°C  1015.0 hPa  49%  8.4 km/h   10.4 km/h  0%  --  16.1km  39%  Partly Cloudy 
 07/05/2021 - 12:00  12.0°C  12.0°C  1014.5 hPa  45%  8.5 km/h   10.8 km/h  0%  --  16.1km  50%  Partly Cloudy 
 07/05/2021 - 13:00  12.5°C  12.5°C  1013.8 hPa  42%  8.4 km/h   10.6 km/h  0%  --  16.1km  49%  Partly Cloudy 
 07/05/2021 - 14:00  13.5°C  13.5°C  1012.9 hPa  40%  8.7 km/h   11.8 km/h  0%  --  16.1km  54%  Partly Cloudy 
 07/05/2021 - 15:00  14.2°C  14.2°C  1012.3 hPa  39%  9.5 km/h   14.1 km/h  0%  --  16.1km  61%  Mostly Cloudy 
 07/05/2021 - 16:00  14.7°C  14.7°C  1011.8 hPa  38%  10.3 km/h   15.8 km/h  0%  --  16.1km  66%  Mostly Cloudy 
 07/05/2021 - 17:00  14.7°C  14.7°C  1011.5 hPa  39%  11.4 km/h   17.6 km/h  0%  --  16.1km  68%  Mostly Cloudy 
 07/05/2021 - 18:00  14.6°C  14.6°C  1011.4 hPa  42%  12.2 km/h   19.5 km/h  0%  --  16.1km  71%  Mostly Cloudy 
 07/05/2021 - 19:00  13.8°C  13.8°C  1011.2 hPa  48%  12.1 km/h   23.6 km/h  1%  0.01 mm/h  16.1km  73%  Mostly Cloudy 
 07/05/2021 - 20:00  12.9°C  12.9°C  1011.4 hPa  53%  11.4 km/h   23.9 km/h  2%  0.02 mm/h  16.1km  80%  Mostly Cloudy 
 07/05/2021 - 21:00  12.1°C  12.1°C  1011.6 hPa  56%  11.9 km/h   27.8 km/h  2%  0.03 mm/h  16.1km  83%  Mostly Cloudy 
 07/05/2021 - 22:00  11.6°C  11.6°C  1011.3 hPa  58%  12.9 km/h   30.3 km/h  2%  0.03 mm/h  16.1km  87%  Mostly Cloudy 
 07/05/2021 - 23:00  11.0°C  11.0°C  1010.9 hPa  61%  13.4 km/h   32.3 km/h  2%  0.02 mm/h  16.1km  89%  Overcast 
 08/05/2021 - 00:00  10.4°C  10.4°C  1010.5 hPa  63%  13.1 km/h   30.4 km/h  2%  0.01 mm/h  16.1km  91%  Overcast 
 08/05/2021 - 01:00  9.6°C  7.8°C  1010.3 hPa  65%  12.4 km/h   28.5 km/h  2%  0.01 mm/h  16.1km  91%  Overcast 
 08/05/2021 - 02:00  8.9°C  7.1°C  1010.3 hPa  68%  11.4 km/h   24.3 km/h  2%  0.01 mm/h  16.1km  91%  Overcast 
 08/05/2021 - 03:00  8.1°C  6.2°C  1010.3 hPa  71%  10.7 km/h   20.6 km/h  0%  --  16.1km  88%  Overcast 
 08/05/2021 - 04:00  7.3°C  5.3°C  1010.3 hPa  74%  10.5 km/h   19.2 km/h  5%  0.11 mm/h  16.1km  83%  Mostly Cloudy 
 08/05/2021 - 05:00  6.7°C  4.8°C  1010.3 hPa  76%  9.9 km/h   17.6 km/h  2%  0.03 mm/h  16.1km  79%  Mostly Cloudy 

 

Past weather and reports

Past weatherFind in this section the past weather conditions, weather archive, graphics, reports and statistics.

Current conditions

Current weather condition for MontrealAll you need to know about the current weather conditions for Montreal. Weather data is updated every 10 minutes.

Weather forecast

Current Montreal weatherSince 2004, celinium.com website has provided accurate weather forecast for Montreal's island.